createdAt,value
2016-04-20T08:27:10.328Z,13.6
2016-04-20T08:28:10.800Z,13.73
2016-04-20T08:29:10.630Z,13.78
2016-04-20T08:30:10.649Z,13.82
2016-04-20T08:31:10.636Z,13.88
2016-04-20T08:32:10.654Z,14.09
2016-04-20T08:33:10.626Z,14.07
2016-04-20T08:34:10.660Z,14.17
2016-04-20T08:35:10.646Z,14.2
2016-04-20T08:36:10.649Z,14.1
2016-04-20T08:37:11.199Z,14.02
2016-04-20T08:38:10.654Z,13.97
2016-04-20T08:39:10.626Z,13.97
2016-04-20T08:40:10.645Z,14.04
2016-04-20T08:41:10.632Z,14.12
2016-04-20T08:42:10.618Z,14.06
2016-04-20T08:43:10.637Z,14.14
2016-04-20T08:44:10.640Z,14.2
2016-04-20T08:45:10.627Z,14.27
2016-04-20T08:46:10.629Z,14.37
2016-04-20T08:47:10.632Z,14.46
2016-04-20T08:48:10.651Z,14.52
2016-04-20T08:49:10.638Z,14.64
2016-04-20T08:50:10.640Z,14.62
2016-04-20T08:51:10.628Z,14.77
2016-04-20T08:52:10.645Z,14.8
2016-04-20T08:53:10.617Z,14.88
2016-04-20T08:54:10.636Z,14.8
2016-04-20T08:55:10.622Z,14.94
2016-04-20T08:56:10.609Z,14.95
2016-04-20T08:57:10.627Z,14.88
2016-04-20T08:58:10.662Z,14.95
2016-04-20T08:59:10.633Z,14.98
2016-04-20T09:00:10.636Z,14.99
2016-04-20T09:01:10.639Z,15.14
2016-04-20T09:02:10.625Z,15.23
2016-04-20T09:03:10.644Z,15.23
2016-04-20T09:04:10.630Z,15.23
2016-04-20T09:05:10.633Z,15.29
2016-04-20T09:06:10.635Z,15.27
2016-04-20T09:07:10.624Z,15.19
2016-04-20T09:08:10.641Z,15.19
2016-04-20T09:09:10.613Z,14.91
2016-04-20T09:10:10.632Z,14.81
2016-04-20T09:11:10.619Z,14.94
2016-04-20T09:12:10.637Z,14.89
2016-04-20T09:13:10.624Z,14.96
2016-04-20T09:14:10.643Z,15.07
2016-04-20T09:15:10.645Z,15.21
2016-04-20T09:16:10.632Z,15.21
2016-04-20T09:17:10.494Z,15.21
2016-04-20T09:18:10.637Z,15.36
2016-04-20T09:19:10.640Z,15.39
2016-04-20T09:20:10.628Z,15.5
2016-04-20T09:21:10.645Z,15.51
2016-04-20T09:22:12.564Z,15.59
2016-04-20T09:23:10.650Z,15.64
2016-04-20T09:24:11.294Z,15.59
2016-04-20T09:25:11.202Z,15.72
2016-04-20T09:26:10.643Z,15.9
2016-04-20T09:27:11.395Z,15.96
2016-04-20T09:28:10.663Z,15.97
2016-04-20T09:29:10.697Z,16.01
2016-04-20T09:30:10.638Z,16.11
2016-04-20T09:31:14.984Z,16.3
2016-04-20T09:32:12.330Z,16.38
2016-04-20T09:33:12.051Z,16.56
2016-04-20T09:34:11.210Z,16.56
2016-04-20T09:35:10.620Z,16.73
2016-04-20T09:36:10.653Z,16.79
2016-04-20T09:37:10.672Z,16.91
2016-04-20T09:38:10.658Z,16.96
2016-04-20T09:39:09.943Z,16.97
2016-04-20T09:40:10.664Z,17.07
2016-04-20T09:41:11.526Z,17.06
2016-04-20T09:42:10.670Z,17.16
2016-04-20T09:43:10.984Z,17.12
2016-04-20T09:44:10.878Z,17.18
2016-04-20T09:45:10.677Z,17.33
2016-04-20T09:46:11.180Z,17.41
2016-04-20T09:47:10.683Z,17.49
2016-04-20T09:48:10.702Z,17.59
2016-04-20T09:49:10.689Z,17.71
2016-04-20T09:50:10.707Z,17.72
2016-04-20T09:51:09.960Z,17.77
2016-04-20T09:52:10.712Z,17.84
2016-04-20T09:53:10.699Z,17.97
2016-04-20T09:54:10.702Z,17.9
2016-04-20T09:55:10.705Z,17.86
2016-04-20T09:56:10.723Z,17.79
2016-04-20T09:57:10.710Z,17.75
2016-04-20T09:58:10.713Z,17.66
2016-04-20T09:59:10.731Z,17.58
2016-04-20T10:00:10.718Z,17.43
2016-04-20T10:01:10.720Z,17.26
2016-04-20T10:02:10.723Z,17.16
2016-04-20T10:03:10.726Z,17.15
2016-04-20T10:04:10.744Z,17.33
2016-04-20T10:05:10.887Z,17.4
2016-04-20T10:06:10.765Z,17.48
2016-04-20T10:07:10.736Z,17.66
2016-04-20T10:08:10.770Z,17.68
2016-04-20T10:09:10.758Z,17.7
2016-04-20T10:10:10.761Z,17.79
2016-04-20T10:11:10.779Z,17.84
2016-04-20T10:12:10.750Z,18
2016-04-20T10:13:10.769Z,18.11
2016-04-20T10:14:10.772Z,18.18
2016-04-20T10:15:10.790Z,18.32
2016-04-20T10:16:10.777Z,18.27
2016-04-20T10:17:10.780Z,18.26
2016-04-20T10:18:10.783Z,18.17
2016-04-20T10:19:10.785Z,18.23
2016-04-20T10:20:10.819Z,18.27
2016-04-20T10:21:10.806Z,18.25
2016-04-20T10:22:10.808Z,18.33
2016-04-20T10:23:10.811Z,18.36
2016-04-20T10:24:10.814Z,18.45
2016-04-20T10:25:10.816Z,18.25
2016-04-20T10:26:10.804Z,18.33
2016-04-20T10:27:10.837Z,18.15
2016-04-20T10:28:10.809Z,18.14
2016-04-20T10:29:10.812Z,18.15
2016-04-20T10:30:10.830Z,18.23
2016-04-20T10:31:10.848Z,18.33
2016-04-20T10:32:10.835Z,18.5
2016-04-20T10:33:10.854Z,18.65
2016-04-20T10:34:10.841Z,18.69
2016-04-20T10:35:10.750Z,18.67
2016-04-20T10:36:10.846Z,18.36
2016-04-20T10:37:10.848Z,18.15
2016-04-20T10:38:10.867Z,18.03
2016-04-20T10:39:10.854Z,17.82
2016-04-20T10:40:10.856Z,17.71
2016-04-20T10:41:10.860Z,17.62
2016-04-20T10:42:10.893Z,17.52
2016-04-20T10:43:10.865Z,17.43
2016-04-20T10:44:10.898Z,17.41
2016-04-20T10:45:10.901Z,17.3
2016-04-20T10:46:10.904Z,17.19
2016-04-20T10:47:10.876Z,17.03
2016-04-20T10:48:10.909Z,17.07
2016-04-20T10:49:10.897Z,17
2016-04-20T10:50:13.289Z,17.06
2016-04-20T10:51:12.792Z,17.14
2016-04-20T10:52:12.061Z,17.25
2016-04-20T10:53:10.907Z,17.23
2016-04-20T10:54:11.160Z,17.25
2016-04-20T10:55:10.944Z,17.41
2016-04-20T10:56:10.181Z,17.23
2016-04-20T10:57:11.012Z,17.22
2016-04-20T10:58:10.936Z,17.11
2016-04-20T10:59:10.938Z,17.12
2016-04-20T11:00:11.332Z,17.14
2016-04-20T11:01:12.116Z,17
2016-04-20T11:02:12.135Z,16.91
2016-04-20T11:03:11.372Z,16.91
2016-04-20T11:04:10.921Z,16.88
2016-04-20T11:05:11.002Z,16.89
2016-04-20T11:06:10.957Z,17.01
2016-04-20T11:07:10.976Z,17.04
2016-04-20T11:08:10.948Z,17.15
2016-04-20T11:09:10.951Z,17.14
2016-04-20T11:10:10.937Z,17.22
2016-04-20T11:11:10.956Z,17.18
2016-04-20T11:12:10.959Z,17.14
2016-04-20T11:13:10.962Z,17.11
2016-04-20T11:14:10.964Z,17.07
2016-04-20T11:15:10.951Z,17.06
2016-04-20T11:16:10.953Z,16.88
2016-04-20T11:17:10.972Z,16.75
2016-04-20T11:18:10.975Z,16.7
2016-04-20T11:19:10.947Z,16.7
2016-04-20T11:20:10.950Z,16.73
2016-04-20T11:21:10.952Z,16.76
2016-04-20T11:22:11.126Z,16.86
2016-04-20T11:23:10.988Z,16.93
2016-04-20T11:24:10.772Z,16.96
2016-04-20T11:25:11.088Z,16.93
2016-04-20T11:26:10.965Z,16.81
2016-04-20T11:27:10.983Z,16.71
2016-04-20T11:28:10.970Z,16.53
2016-04-20T11:29:10.988Z,16.57
2016-04-20T11:30:10.991Z,16.52
2016-04-20T11:31:10.994Z,16.41
2016-04-20T11:32:10.997Z,16.25
2016-04-20T11:33:11.016Z,16.23
2016-04-20T11:34:11.002Z,16.28
2016-04-20T11:35:11.005Z,16.24
2016-04-20T11:36:11.023Z,16.21
2016-04-20T11:37:11.041Z,16.2
2016-04-20T11:38:10.998Z,16.08
2016-04-20T11:39:11.032Z,16.21
2016-04-20T11:40:11.003Z,16.34
2016-04-20T11:42:11.726Z,16.66
2016-04-20T11:43:12.026Z,16.73
2016-04-20T11:44:11.606Z,16.79
2016-04-20T11:45:11.017Z,16.86
2016-04-20T11:46:11.378Z,16.86
2016-04-20T11:47:11.302Z,16.94
2016-04-20T11:48:11.009Z,17.01
2016-04-20T11:49:10.995Z,17.11
2016-04-20T11:50:14.155Z,17.08
2016-04-20T11:51:11.001Z,17.19
2016-04-20T11:52:12.347Z,17.08
2016-04-20T11:53:11.006Z,16.97
2016-04-20T11:54:11.009Z,16.83
2016-04-20T11:55:11.027Z,16.66
2016-04-20T11:56:11.592Z,16.48
2016-04-20T11:57:11.407Z,16.24
2016-04-20T11:58:11.176Z,16.15
2016-04-20T11:59:11.023Z,16.14
2016-04-20T12:00:11.041Z,16.04
2016-04-20T12:01:11.044Z,15.92
2016-04-20T12:02:11.046Z,15.86
2016-04-20T12:03:11.032Z,15.75
2016-04-20T12:04:11.067Z,15.74
2016-04-20T12:05:11.055Z,15.8
2016-04-20T12:06:11.041Z,15.69
2016-04-20T12:07:11.044Z,15.64
2016-04-20T12:08:11.031Z,15.54
2016-04-20T12:09:12.284Z,15.43
2016-04-20T12:10:11.879Z,15.39
2016-04-20T12:11:11.039Z,15.39
2016-04-20T12:12:11.386Z,15.47
2016-04-20T12:13:11.248Z,15.46
2016-04-20T12:14:11.048Z,15.6
2016-04-20T12:15:11.581Z,15.62
2016-04-20T12:16:11.255Z,15.83
2016-04-20T12:17:11.056Z,15.94
2016-04-20T12:18:11.074Z,16.07
2016-04-20T12:19:11.045Z,15.96
2016-04-20T12:20:11.095Z,16.01
2016-04-20T12:21:11.050Z,16.01
2016-04-20T12:22:12.162Z,16
2016-04-20T12:23:11.040Z,16.08
2016-04-20T12:24:11.058Z,16.08
2016-04-20T12:25:11.264Z,16.21
2016-04-20T12:26:11.063Z,16.17
2016-04-20T12:27:11.050Z,16.24
2016-04-20T12:28:11.053Z,16.31
2016-04-20T12:29:11.056Z,16.08
2016-04-20T12:30:11.058Z,16.09
2016-04-20T12:31:11.047Z,15.96
2016-04-20T12:32:11.063Z,15.96
2016-04-20T12:33:11.051Z,15.97
2016-04-20T12:34:11.069Z,16
2016-04-20T12:35:11.057Z,16.07
2016-04-20T12:36:11.044Z,16.02
2016-04-20T12:37:11.047Z,15.97
2016-04-20T12:38:11.065Z,15.93
2016-04-20T12:39:11.052Z,16
2016-04-20T12:40:11.086Z,16
2016-04-20T12:41:11.074Z,16.01
2016-04-20T12:42:11.076Z,16
2016-04-20T12:43:11.078Z,16
2016-04-20T12:44:11.050Z,16.12
2016-04-20T12:45:11.053Z,16.08
2016-04-20T12:46:11.071Z,15.94
2016-04-20T12:47:11.074Z,16.05
2016-04-20T12:48:11.061Z,16.08
2016-04-20T12:49:11.079Z,16.2
2016-04-20T12:50:11.066Z,16.17
2016-04-20T12:51:11.069Z,16.31
2016-04-20T12:52:11.072Z,16.43
2016-04-20T12:53:11.074Z,16.49
2016-04-20T12:54:11.077Z,16.6
2016-04-20T12:55:11.080Z,16.58
2016-04-20T12:56:11.067Z,16.52
2016-04-20T12:57:11.069Z,16.48
2016-04-20T12:58:11.072Z,16.43
2016-04-20T12:59:11.075Z,16.42
2016-04-20T13:00:11.858Z,16.42
2016-04-20T13:01:11.079Z,16.39
2016-04-20T13:02:12.535Z,16.43
2016-04-20T13:03:11.742Z,16.39
2016-04-20T13:04:11.822Z,16.33
2016-04-20T13:05:11.091Z,16.27
2016-04-20T13:06:11.562Z,16.21
2016-04-20T13:07:10.971Z,16.09
2016-04-20T13:08:11.083Z,16.21
2016-04-20T13:09:13.180Z,16.25
2016-04-20T13:10:12.448Z,16.33
2016-04-20T13:11:11.543Z,16.33
2016-04-20T13:12:11.234Z,16.52
2016-04-20T13:13:11.487Z,16.53
2016-04-20T13:14:11.724Z,16.63
2016-04-20T13:15:11.087Z,16.66
2016-04-20T13:16:11.214Z,16.7
2016-04-20T13:17:11.076Z,16.71
2016-04-20T13:18:11.079Z,16.79
2016-04-20T13:19:11.081Z,16.85
2016-04-20T13:20:11.084Z,16.91
2016-04-20T13:21:11.087Z,16.89
2016-04-20T13:22:11.089Z,16.94
2016-04-20T13:23:11.092Z,17
2016-04-20T13:24:11.078Z,16.91
2016-04-20T13:25:10.941Z,16.96
2016-04-20T13:26:11.100Z,16.96
2016-04-20T13:27:11.103Z,16.89
2016-04-20T13:28:12.637Z,16.73
2016-04-20T13:29:11.139Z,16.57
2016-04-20T13:30:12.142Z,16.49
2016-04-20T13:31:12.410Z,16.46
2016-04-20T13:32:11.711Z,16.35
2016-04-20T13:33:11.103Z,16.43
2016-04-20T13:34:11.106Z,16.33
2016-04-20T13:35:11.108Z,16.34
2016-04-20T13:36:11.080Z,16.41
2016-04-20T13:37:13.113Z,16.39
2016-04-20T13:38:13.149Z,16.35
2016-04-20T13:39:12.760Z,16.45
2016-04-20T13:40:11.794Z,16.5
2016-04-20T13:41:11.110Z,16.48
2016-04-20T13:42:11.112Z,16.58
2016-04-20T13:43:11.504Z,16.53
2016-04-20T13:44:11.508Z,16.6
2016-04-20T13:45:11.104Z,16.6
2016-04-20T13:46:11.123Z,16.49
2016-04-20T13:47:11.109Z,16.42
2016-04-20T13:48:11.098Z,16.35
2016-04-20T13:49:11.100Z,16.33
2016-04-20T13:50:11.103Z,16.33
2016-04-20T13:51:11.105Z,16.25
2016-04-20T13:52:11.093Z,16.31
2016-04-20T13:53:11.126Z,16.33
2016-04-20T13:54:11.097Z,16.24
2016-04-20T13:55:11.116Z,16.27
2016-04-20T13:56:11.103Z,16.24
2016-04-20T13:57:11.121Z,16.15
2016-04-20T13:58:11.125Z,16.15
2016-04-20T13:59:11.127Z,16.07
2016-04-20T14:00:11.098Z,16.15
2016-04-20T14:01:11.101Z,16.05
2016-04-20T14:02:11.103Z,16.12
2016-04-20T14:03:11.122Z,16.09
2016-04-20T14:04:11.108Z,16.12
2016-04-20T14:05:11.439Z,16.05
2016-04-20T14:06:11.160Z,16.04
2016-04-20T14:07:11.117Z,16.04
2016-04-20T14:08:11.135Z,16
2016-04-20T14:09:11.122Z,16.05
2016-04-20T14:10:11.125Z,16
2016-04-20T14:11:11.096Z,16.05
2016-04-20T14:12:11.115Z,15.96
2016-04-20T14:13:11.102Z,15.97
2016-04-20T14:14:11.121Z,15.9
2016-04-20T14:15:11.123Z,15.75
2016-04-20T14:16:11.109Z,15.75
2016-04-20T14:17:11.112Z,15.71
2016-04-20T14:18:11.115Z,15.54
2016-04-20T14:19:12.118Z,15.44
2016-04-20T14:20:11.762Z,15.25
2016-04-20T14:21:11.326Z,15.09
2016-04-20T14:22:11.940Z,15.01
2016-04-20T14:23:11.395Z,14.86
2016-04-20T14:24:11.273Z,14.84
2016-04-20T14:25:11.119Z,14.77
2016-04-20T14:26:11.107Z,14.64
2016-04-20T14:27:11.109Z,14.65
2016-04-20T14:28:12.659Z,14.61
2016-04-20T14:29:11.115Z,14.61
2016-04-20T14:30:11.305Z,14.69
2016-04-20T14:31:11.260Z,14.72
2016-04-20T14:32:11.122Z,14.62
2016-04-20T14:33:11.515Z,14.57
2016-04-20T14:34:11.112Z,14.54
2016-04-20T14:35:11.100Z,14.65
2016-04-20T14:36:11.133Z,14.52
2016-04-20T14:37:11.120Z,14.62
2016-04-20T14:38:11.092Z,14.7
2016-04-20T14:39:11.095Z,14.77
2016-04-20T14:40:11.113Z,14.81
2016-04-20T14:41:11.100Z,14.81
2016-04-20T14:42:11.103Z,14.81
2016-04-20T14:43:11.105Z,14.88
2016-04-20T14:44:11.108Z,14.84
2016-04-20T14:45:11.095Z,14.88
2016-04-20T14:46:11.098Z,14.92
2016-04-20T14:47:11.694Z,14.92
2016-04-20T14:48:13.572Z,14.96
2016-04-20T14:49:11.106Z,15.02
2016-04-20T14:50:12.249Z,14.88
2016-04-20T14:51:11.314Z,14.94
2016-04-20T14:52:11.488Z,14.83
2016-04-20T14:53:11.304Z,14.92
2016-04-20T14:54:11.322Z,14.88
2016-04-20T14:55:10.966Z,14.89
2016-04-20T14:56:12.046Z,14.84
2016-04-20T14:57:12.049Z,14.92
2016-04-20T14:58:11.083Z,14.94
2016-04-20T14:59:12.149Z,14.96
2016-04-20T15:00:12.182Z,15.02
2016-04-20T15:01:11.701Z,15.09
2016-04-20T15:02:11.234Z,15.13
2016-04-20T15:03:11.284Z,15.2
2016-04-20T15:04:11.302Z,15.23
2016-04-20T15:05:11.086Z,15.2
2016-04-20T15:06:11.089Z,15.25
2016-04-20T15:07:11.076Z,15.41
2016-04-20T15:08:11.064Z,15.44
2016-04-20T15:09:11.082Z,15.51
2016-04-20T15:10:11.100Z,15.65
2016-04-20T15:11:11.087Z,15.8
2016-04-20T15:12:11.089Z,15.83
2016-04-20T15:13:11.108Z,15.96
2016-04-20T15:14:11.079Z,16.09
2016-04-20T15:15:11.082Z,16.21
2016-04-20T15:16:11.069Z,16.28
2016-04-20T15:17:11.071Z,16.3
2016-04-20T15:18:11.090Z,16.12
2016-04-20T15:19:11.093Z,16.12
2016-04-20T15:20:11.096Z,16.15
2016-04-20T15:21:11.098Z,16.12
2016-04-20T15:22:11.085Z,16.08
2016-04-20T15:23:11.088Z,16.09
2016-04-20T15:24:11.090Z,16.01
2016-04-20T15:25:11.077Z,15.93
2016-04-20T15:26:11.080Z,15.9
2016-04-20T15:27:11.082Z,15.68
2016-04-20T15:28:11.086Z,15.62
2016-04-20T15:29:11.073Z,15.5
2016-04-20T15:30:11.091Z,15.43
2016-04-20T15:31:11.093Z,15.36
2016-04-20T15:32:11.065Z,15.34
2016-04-20T15:33:11.099Z,15.41
2016-04-20T15:34:11.101Z,15.28
2016-04-20T15:35:11.089Z,15.25
2016-04-20T15:36:11.080Z,15.03
2016-04-20T15:37:11.927Z,14.95
2016-04-20T15:38:11.461Z,14.88
2016-04-20T15:39:11.088Z,14.91
2016-04-20T15:40:12.045Z,14.88
2016-04-20T15:41:11.078Z,14.88
2016-04-20T15:42:11.081Z,14.84
2016-04-20T15:43:11.694Z,14.89
2016-04-20T15:44:11.103Z,14.86
2016-04-20T15:45:11.074Z,14.88
2016-04-20T15:46:11.092Z,14.91
2016-04-20T15:47:11.548Z,14.89
2016-04-20T15:48:12.380Z,14.86
2016-04-20T15:49:12.335Z,14.88
2016-04-20T15:50:11.666Z,14.84
2016-04-20T15:51:11.074Z,14.86
2016-04-20T15:52:11.077Z,14.8
2016-04-20T15:53:11.064Z,14.8
2016-04-20T15:54:11.066Z,14.84
2016-04-20T15:55:11.069Z,14.8
2016-04-20T15:56:11.071Z,14.78
2016-04-20T15:57:11.059Z,14.77
2016-04-20T15:58:11.114Z,14.88
2016-04-20T15:59:11.143Z,14.84
2016-04-20T16:00:11.188Z,14.88
2016-04-20T16:01:11.232Z,14.89
2016-04-20T16:02:11.276Z,14.78
2016-04-20T16:03:11.286Z,14.86
2016-04-20T16:04:11.321Z,14.94
2016-04-20T16:06:53.895Z,14.94
2016-04-20T16:07:52.238Z,14.96
2016-04-20T16:08:52.261Z,14.95
2016-04-20T16:09:52.270Z,14.95
2016-04-20T16:10:52.762Z,14.96
2016-04-20T16:11:52.239Z,14.95
2016-04-20T16:12:52.511Z,14.98
2016-04-20T16:13:52.266Z,14.94
2016-04-20T16:14:52.287Z,14.88
2016-04-20T16:15:52.276Z,14.89
2016-04-20T16:16:52.263Z,14.86
2016-04-20T16:17:53.472Z,14.84
2016-04-20T16:18:52.257Z,14.8
2016-04-20T16:19:52.275Z,14.75
2016-04-20T16:20:52.264Z,14.65
2016-04-20T16:21:52.282Z,14.75
2016-04-20T16:22:52.302Z,14.78
2016-04-20T16:23:52.273Z,14.7
2016-04-20T16:24:52.307Z,14.73
2016-04-20T16:25:52.279Z,14.84
2016-04-20T16:26:52.266Z,14.7
2016-04-20T16:27:52.254Z,14.73
2016-04-20T16:28:52.257Z,14.75
2016-04-20T16:29:52.260Z,14.77
2016-04-20T16:30:52.263Z,14.69
2016-04-20T16:31:52.265Z,14.69
2016-04-20T16:32:52.252Z,14.69
2016-04-20T16:33:52.254Z,14.65
2016-04-20T16:34:52.273Z,14.5
2016-04-20T16:35:52.260Z,14.52
2016-04-20T16:36:52.262Z,14.46
2016-04-20T16:37:52.249Z,14.36
2016-04-20T16:38:52.237Z,14.24
2016-04-20T16:39:52.255Z,14.32
2016-04-20T16:40:52.242Z,14.24
2016-04-20T16:41:52.245Z,14.27
2016-04-20T16:42:52.248Z,14.33
2016-04-20T16:43:52.250Z,14.22
2016-04-20T16:44:52.253Z,14.33
2016-04-20T16:45:52.240Z,14.27
2016-04-20T16:46:52.258Z,14.2
2016-04-20T16:47:52.245Z,14.2
2016-04-20T16:48:52.232Z,14.27
2016-04-20T16:49:52.251Z,14.15
2016-04-20T16:50:52.238Z,14.15
2016-04-20T16:51:52.240Z,14.09
2016-04-20T16:52:52.228Z,14.12
2016-04-20T16:53:52.230Z,14.02
2016-04-20T16:54:52.217Z,14.03
2016-04-20T16:55:52.236Z,13.87
2016-04-20T16:56:52.394Z,13.87
2016-04-20T16:57:52.288Z,13.78
2016-04-20T16:58:52.213Z,13.67
2016-04-20T16:59:52.950Z,13.6
2016-04-20T17:00:52.671Z,13.59
2016-04-20T17:01:52.767Z,13.51
2016-04-20T17:02:52.223Z,13.39
2016-04-20T17:03:52.226Z,13.39
2016-04-20T17:04:52.197Z,13.3
2016-04-20T17:05:52.216Z,13.25
2016-04-20T17:06:53.593Z,13.15
2016-04-20T17:07:52.205Z,13.11
2016-04-20T17:08:52.193Z,13.1
2016-04-20T17:09:53.054Z,13.04
2016-04-20T17:10:52.479Z,13.01
2016-04-20T17:11:52.201Z,13
2016-04-20T17:12:52.188Z,12.83
2016-04-20T17:13:52.190Z,12.9
2016-04-20T17:14:52.193Z,12.86
2016-04-20T17:15:52.180Z,12.77
2016-04-20T17:16:52.183Z,12.72
2016-04-20T17:17:52.201Z,12.7
2016-04-20T17:18:52.203Z,12.64
2016-04-20T17:19:52.190Z,12.56
2016-04-20T17:20:52.162Z,12.52
2016-04-20T17:21:52.212Z,12.46
2016-04-20T17:22:52.168Z,12.35
2016-04-20T17:23:52.170Z,12.37
2016-04-20T17:24:52.158Z,12.32
2016-04-20T17:25:53.020Z,12.19
2016-04-20T17:26:53.272Z,12.17
2016-04-20T17:27:52.821Z,12.12
2016-04-20T17:28:52.152Z,12.09
2016-04-20T17:29:52.562Z,12.02
2016-04-20T17:30:52.658Z,12.02
2016-04-20T17:31:52.160Z,11.99
2016-04-20T17:32:52.148Z,11.82
2016-04-20T17:33:54.650Z,11.79
2016-04-20T17:34:54.685Z,11.82
2016-04-20T17:35:53.375Z,11.76
2016-04-20T17:36:52.033Z,11.7
2016-04-20T17:37:52.411Z,11.6
2016-04-20T17:38:52.273Z,11.62
2016-04-20T17:39:52.698Z,11.49
2016-04-20T17:40:52.372Z,11.47
2016-04-20T17:41:52.141Z,11.36
2016-04-20T17:42:52.144Z,11.36
2016-04-20T17:43:52.146Z,11.36
2016-04-20T17:44:52.118Z,11.29
2016-04-20T17:45:52.121Z,11.22
2016-04-20T17:46:52.107Z,11.28
2016-04-20T17:47:52.110Z,11.07
2016-04-20T17:48:52.128Z,11.07
2016-04-20T17:49:52.085Z,10.92
2016-04-20T17:50:52.087Z,10.94
2016-04-20T17:51:52.199Z,10.91
2016-04-20T17:52:52.092Z,10.86
2016-04-20T17:53:52.085Z,10.79
2016-04-20T17:54:52.088Z,10.7
2016-04-20T17:55:52.059Z,10.66
2016-04-20T17:56:52.078Z,10.61
2016-04-20T17:57:52.081Z,10.53
2016-04-20T17:58:52.051Z,10.51
2016-04-20T17:59:51.914Z,10.44
2016-04-20T18:00:52.072Z,10.51
2016-04-20T18:01:52.044Z,10.44
2016-04-20T18:02:52.047Z,10.4
2016-04-20T18:03:52.049Z,10.32
2016-04-20T18:04:52.053Z,10.2
2016-04-20T18:05:52.023Z,10.18
2016-04-20T18:06:52.167Z,10.09
2016-04-20T18:07:52.027Z,10.09
2016-04-20T18:08:52.046Z,9.97
2016-04-20T18:09:51.861Z,10.01
2016-04-20T18:10:52.019Z,9.93
2016-04-20T18:11:51.992Z,9.96
2016-04-20T18:12:52.009Z,9.87
2016-04-20T18:13:51.996Z,9.78
2016-04-20T18:15:53.986Z,9.71
2016-04-20T18:16:53.442Z,9.71
2016-04-20T18:17:52.183Z,9.69
2016-04-20T18:18:52.998Z,9.61
2016-04-20T18:19:51.984Z,9.53
2016-04-20T18:20:51.973Z,9.48
2016-04-20T18:21:51.855Z,9.36
2016-04-20T18:22:52.186Z,9.39
2016-04-20T18:23:51.954Z,9.35
2016-04-20T18:24:52.753Z,9.29
2016-04-20T18:25:51.990Z,9.18
2016-04-20T18:26:52.228Z,9.18
2016-04-20T18:27:51.933Z,9.2
2016-04-20T18:28:51.936Z,9.11
2016-04-20T18:29:51.923Z,9.08
2016-04-20T18:30:51.613Z,8.94
2016-04-20T18:31:51.928Z,8.96
2016-04-20T18:32:52.041Z,8.94
2016-04-20T18:33:51.918Z,8.96
2016-04-20T18:34:51.905Z,8.87
2016-04-20T18:35:51.908Z,8.81
2016-04-20T18:36:51.911Z,8.74
2016-04-20T18:37:51.882Z,8.77
2016-04-20T18:38:51.885Z,8.71
2016-04-20T18:39:51.888Z,8.71
2016-04-20T18:40:51.907Z,8.74
2016-04-20T18:41:51.877Z,8.59
2016-04-20T18:42:51.880Z,8.66
2016-04-20T18:43:54.210Z,8.7
2016-04-20T18:44:51.995Z,8.56
2016-04-20T18:45:51.856Z,8.61
2016-04-20T18:46:51.844Z,8.56
2016-04-20T18:47:52.190Z,8.52
2016-04-20T18:48:52.099Z,8.45
2016-04-20T18:49:51.836Z,8.38
2016-04-20T18:50:51.651Z,8.44
2016-04-20T18:51:51.841Z,8.37
2016-04-20T18:52:53.954Z,8.33
2016-04-20T18:53:53.550Z,8.3
2016-04-20T18:54:51.990Z,8.3
2016-04-20T18:55:52.962Z,8.23
2016-04-20T18:56:52.745Z,8.25
2016-04-20T18:57:52.061Z,8.26
2016-04-20T18:58:51.798Z,8.19
2016-04-20T18:59:51.785Z,8.16
2016-04-20T19:00:51.773Z,8.11
2016-04-20T19:01:51.775Z,8.01
2016-04-20T19:02:51.761Z,8.05
2016-04-20T19:03:51.764Z,8.02
2016-04-20T19:04:51.736Z,8.04
2016-04-20T19:05:51.739Z,7.98
2016-04-20T19:06:51.742Z,8
2016-04-20T19:07:51.571Z,7.98
2016-04-20T19:08:51.715Z,7.97
2016-04-20T19:09:51.734Z,8
2016-04-20T19:10:51.721Z,7.95
2016-04-20T19:11:51.707Z,7.95
2016-04-20T19:12:51.539Z,7.95
2016-04-20T19:13:51.698Z,7.95
2016-04-20T19:14:51.685Z,7.97
2016-04-20T19:15:51.672Z,7.89
2016-04-20T19:16:51.690Z,7.87
2016-04-20T19:17:51.661Z,7.89
2016-04-20T19:18:51.523Z,7.82
2016-04-20T19:19:51.651Z,7.85
2016-04-20T19:20:51.670Z,7.75
2016-04-20T19:21:51.657Z,7.75
2016-04-20T19:22:51.644Z,7.67
2016-04-20T19:23:51.647Z,7.61
2016-04-20T19:24:51.617Z,7.6
2016-04-20T19:25:51.620Z,7.63
2016-04-20T19:26:51.623Z,7.49
2016-04-20T19:27:51.642Z,7.52
2016-04-20T19:28:51.613Z,7.43
2016-04-20T19:29:51.600Z,7.48
2016-04-20T19:30:51.587Z,7.6
2016-04-20T19:31:51.589Z,7.6
2016-04-20T19:32:51.593Z,7.55
2016-04-20T19:33:53.142Z,7.52
2016-04-20T19:34:52.551Z,7.5
2016-04-20T19:35:51.647Z,7.52
2016-04-20T19:36:52.869Z,7.49
2016-04-20T19:37:51.543Z,7.48
2016-04-20T19:38:52.359Z,7.42
2016-04-20T19:39:51.768Z,7.42
2016-04-20T19:40:51.771Z,7.34
2016-04-20T19:41:51.711Z,7.31
2016-04-20T19:42:51.526Z,7.3
2016-04-20T19:43:52.560Z,7.3
2016-04-20T19:44:52.296Z,7.28
2016-04-20T19:45:53.018Z,7.23
2016-04-20T19:46:52.412Z,7.21
2016-04-20T19:47:51.493Z,7.32
2016-04-20T19:48:51.667Z,7.24
2016-04-20T19:49:51.482Z,7.31
2016-04-20T19:50:51.532Z,7.3
2016-04-20T19:51:51.534Z,7.24
2016-04-20T19:52:51.459Z,7.15
2016-04-20T19:53:51.445Z,7.17
2016-04-20T19:54:51.433Z,7.17
2016-04-20T19:55:51.436Z,7.12
2016-04-20T19:56:51.439Z,7.15
2016-04-20T19:57:51.425Z,7.09
2016-04-20T19:58:51.444Z,7.21
2016-04-20T19:59:51.415Z,7.13
2016-04-20T20:00:51.403Z,7.1
2016-04-20T20:01:51.405Z,7.12
2016-04-20T20:02:53.423Z,7.06
2016-04-20T20:03:51.410Z,7.12
2016-04-20T20:04:51.367Z,7.13
2016-04-20T20:05:52.385Z,7.16
2016-04-20T20:06:51.356Z,7.07
2016-04-20T20:07:51.358Z,6.98
2016-04-20T20:08:51.346Z,7.09
2016-04-20T20:09:51.363Z,7.12
2016-04-20T20:10:51.351Z,7.03
2016-04-20T20:11:53.652Z,6.95
2016-04-20T20:12:52.871Z,6.94
2016-04-20T20:13:51.327Z,6.98
2016-04-20T20:14:51.549Z,7.03
2016-04-20T20:15:51.302Z,6.99
2016-04-20T20:16:51.993Z,6.98
2016-04-20T20:17:51.292Z,6.99
2016-04-20T20:18:51.623Z,7.03
2016-04-20T20:19:51.282Z,6.98
2016-04-20T20:20:51.268Z,6.92
2016-04-20T20:21:51.125Z,6.95
2016-04-20T20:22:51.276Z,6.98
2016-04-20T20:23:51.264Z,6.94
2016-04-20T20:24:51.250Z,6.87
2016-04-20T20:25:51.253Z,6.81
2016-04-20T20:26:51.239Z,6.87
2016-04-20T20:27:51.228Z,6.84
2016-04-20T20:28:51.230Z,6.79
2016-04-20T20:29:51.232Z,6.81
2016-04-20T20:30:51.205Z,6.69
2016-04-20T20:31:51.191Z,6.76
2016-04-20T20:32:51.194Z,6.73
2016-04-20T20:33:51.196Z,6.71
2016-04-20T20:34:51.168Z,6.73
2016-04-20T20:35:51.186Z,6.7
2016-04-20T20:36:51.173Z,6.7
2016-04-20T20:37:51.161Z,6.67
2016-04-20T20:38:51.163Z,6.66
2016-04-20T20:39:51.149Z,6.7
2016-04-20T20:40:51.152Z,6.69
2016-04-20T20:41:51.124Z,6.73
2016-04-20T20:42:51.126Z,6.71
2016-04-20T20:43:51.114Z,6.71
2016-04-20T20:44:51.117Z,6.71
2016-04-20T20:45:51.119Z,6.58
2016-04-20T20:46:51.091Z,6.67
2016-04-20T20:47:51.093Z,6.62
2016-04-20T20:48:51.080Z,6.55
2016-04-20T20:49:51.099Z,6.56
2016-04-20T20:50:51.070Z,6.51
2016-04-20T20:51:51.072Z,6.48
2016-04-20T20:52:51.966Z,6.52
2016-04-20T20:53:51.063Z,6.56
2016-04-20T20:54:52.503Z,6.51
2016-04-20T20:55:51.037Z,6.56
2016-04-20T20:56:51.008Z,6.52
2016-04-20T20:57:51.042Z,6.52
2016-04-20T20:58:51.482Z,6.49
2016-04-20T20:59:51.283Z,6.46
2016-04-20T21:00:51.050Z,6.51
2016-04-20T21:01:50.992Z,6.51
2016-04-20T21:02:51.165Z,6.54
2016-04-20T21:03:51.482Z,6.54
2016-04-20T21:04:51.046Z,6.55
2016-04-20T21:05:50.971Z,6.51
2016-04-20T21:06:50.971Z,6.59
2016-04-20T21:07:50.958Z,6.59
2016-04-20T21:08:50.945Z,6.58
2016-04-20T21:09:50.963Z,6.59
2016-04-20T21:10:50.919Z,6.62
2016-04-20T21:11:50.923Z,6.61
2016-04-20T21:12:50.908Z,6.71
2016-04-20T21:13:50.927Z,6.66
2016-04-20T21:14:50.914Z,6.7
2016-04-20T21:15:50.902Z,6.62
2016-04-20T21:16:50.889Z,6.69
2016-04-20T21:17:50.875Z,6.62
2016-04-20T21:18:50.878Z,6.67
2016-04-20T21:19:50.881Z,6.66
2016-04-20T21:20:50.868Z,6.69
2016-04-20T21:21:52.591Z,6.71
2016-04-20T21:23:05.032Z,6.7
2016-04-20T21:23:51.688Z,6.69
2016-04-20T21:24:50.847Z,6.62
2016-04-20T21:25:50.929Z,6.69
2016-04-20T21:26:50.821Z,6.66
2016-04-20T21:27:51.027Z,6.69
2016-04-20T21:28:50.812Z,6.62
2016-04-20T21:29:50.783Z,6.62
2016-04-20T21:31:04.991Z,6.61
2016-04-20T21:31:51.226Z,6.58
2016-04-20T21:32:51.963Z,6.51